createdAt,value
2022-08-13T00:00:59.555Z,101811.63
2022-08-13T00:03:59.448Z,101813.56
2022-08-13T00:06:48.367Z,101812.81
2022-08-13T00:09:39.175Z,101811.16
2022-08-13T00:12:33.654Z,101811.28
2022-08-13T00:15:12.889Z,101806.94
2022-08-13T00:18:02.335Z,101814.13
2022-08-13T00:20:36.515Z,101816.06
2022-08-13T00:23:21.222Z,101817.06
2022-08-13T00:25:55.561Z,101813.63
2022-08-13T00:28:27.500Z,101819.00
2022-08-13T00:30:56.887Z,101812.00
2022-08-13T00:33:33.589Z,101813.03
2022-08-13T00:36:12.517Z,101817.53
2022-08-13T00:38:42.082Z,101815.88
2022-08-13T00:41:31.897Z,101815.97
2022-08-13T00:44:20.878Z,101809.91
2022-08-13T00:47:09.818Z,101817.94
2022-08-13T00:49:37.079Z,101810.00
2022-08-13T00:52:11.837Z,101818.06
2022-08-13T00:54:42.313Z,101819.00
2022-08-13T00:57:19.387Z,101813.72
2022-08-13T00:59:54.609Z,101817.34
2022-08-13T01:02:23.365Z,101817.44
2022-08-13T01:05:03.326Z,101816.66
2022-08-13T01:07:47.730Z,101808.75
2022-08-13T01:10:21.502Z,101819.47
2022-08-13T01:12:54.484Z,101816.88
2022-08-13T01:15:25.455Z,101818.72
2022-08-13T01:18:00.882Z,101821.44
2022-08-13T01:20:31.660Z,101817.97
2022-08-13T01:23:08.941Z,101815.38
2022-08-13T01:25:43.073Z,101824.31
2022-08-13T01:28:24.054Z,101821.75
2022-08-13T01:30:52.542Z,101819.97
2022-08-13T01:33:21.886Z,101820.91
2022-08-13T01:35:52.405Z,101818.28
2022-08-13T01:38:27.470Z,101818.34
2022-08-13T01:40:56.920Z,101814.84
2022-08-13T01:46:00.521Z,101814.94
2022-08-13T01:48:58.889Z,101814.94
2022-08-13T01:51:40.263Z,101813.31
2022-08-13T01:54:38.068Z,101809.72
2022-08-13T01:57:06.752Z,101815.06
2022-08-13T02:00:00.787Z,101813.31
2022-08-13T02:02:34.378Z,101815.13
2022-08-13T02:05:03.807Z,101809.84
2022-08-13T02:08:01.187Z,101806.31
2022-08-13T02:10:24.051Z,101815.22
2022-08-13T02:12:54.783Z,101808.16
2022-08-13T02:15:30.453Z,101808.22
2022-08-13T02:18:19.995Z,101803.84
2022-08-13T02:20:50.797Z,101810.06
2022-08-13T02:23:29.871Z,101810.13
2022-08-13T02:26:15.239Z,101801.31
2022-08-13T02:28:49.585Z,101804.84
2022-08-13T02:31:25.772Z,101805.78
2022-08-13T02:33:55.258Z,101807.59
2022-08-13T02:36:26.237Z,101813.78
2022-08-13T02:38:59.545Z,101812.91
2022-08-13T02:41:52.261Z,101810.31
2022-08-13T02:44:34.878Z,101815.66
2022-08-13T02:47:06.217Z,101813.91
2022-08-13T02:49:46.231Z,101811.31
2022-08-13T02:52:16.579Z,101815.75
2022-08-13T02:54:54.964Z,101810.53
2022-08-13T02:57:27.816Z,101814.19
2022-08-13T03:00:05.137Z,101815.94
2022-08-13T03:02:40.254Z,101823.09
2022-08-13T03:05:13.346Z,101818.72
2022-08-13T03:07:51.879Z,101814.34
2022-08-13T03:10:35.307Z,101817.03
2022-08-13T03:13:21.739Z,101825.03
2022-08-13T03:16:02.016Z,101815.34
2022-08-13T03:18:38.486Z,101816.28
2022-08-13T03:21:42.160Z,101822.50
2022-08-13T03:24:22.212Z,101832.28
2022-08-13T03:26:58.415Z,101829.63
2022-08-13T03:29:58.002Z,101824.38
2022-08-13T03:32:31.726Z,101821.75
2022-08-13T03:35:14.736Z,101816.50
2022-08-13T03:37:47.740Z,101820.94
2022-08-13T03:40:19.153Z,101828.94
2022-08-13T03:42:53.010Z,101828.06
2022-08-13T03:45:26.263Z,101825.47
2022-08-13T03:47:54.760Z,101827.28
2022-08-13T03:50:24.590Z,101833.50
2022-08-13T03:52:55.466Z,101831.75
2022-08-13T03:55:27.574Z,101837.13
2022-08-13T03:58:03.166Z,101830.97
2022-08-13T04:00:35.395Z,101826.56
2022-08-13T04:03:15.489Z,101830.16
2022-08-13T04:05:56.695Z,101836.34
2022-08-13T04:08:28.985Z,101825.78
2022-08-13T04:10:58.733Z,101827.56
2022-08-13T04:14:05.233Z,101825.81
2022-08-13T04:16:26.947Z,101827.63
2022-08-13T04:18:59.481Z,101839.13
2022-08-13T04:21:32.908Z,101833.84
2022-08-13T04:24:04.172Z,101828.53
2022-08-13T04:26:33.650Z,101832.94
2022-08-13T04:29:05.805Z,101830.28
2022-08-13T04:31:46.201Z,101833.84
2022-08-13T04:34:33.815Z,101833.84
2022-08-13T04:37:19.617Z,101831.19
2022-08-13T04:40:05.466Z,101835.59
2022-08-13T04:42:54.116Z,101832.00
2022-08-13T04:45:25.727Z,101839.94
2022-08-13T04:47:59.517Z,101823.69
2022-08-13T04:50:30.483Z,101827.72
2022-08-13T04:52:59.487Z,101823.09
2022-08-13T04:55:57.630Z,101824.81
2022-08-13T04:58:17.007Z,101821.25
2022-08-13T05:00:50.879Z,101824.75
2022-08-13T05:03:25.036Z,101823.81
2022-08-13T05:06:02.318Z,101826.41
2022-08-13T05:08:32.580Z,101818.34
2022-08-13T05:11:03.723Z,101820.03
2022-08-13T05:13:45.049Z,101825.28
2022-08-13T05:16:17.912Z,101819.84
2022-08-13T05:18:51.717Z,101826.81
2022-08-13T05:21:23.138Z,101827.56
2022-08-13T05:26:08.093Z,101827.44
2022-08-13T05:27:01.039Z,101820.16
2022-08-13T05:29:31.962Z,101823.56
2022-08-13T05:32:09.990Z,101820.72
2022-08-13T05:34:46.059Z,101829.44
2022-08-13T05:38:13.988Z,101817.72
2022-08-13T05:40:09.734Z,101828.16
2022-08-13T05:42:40.553Z,101820.84
2022-08-13T05:45:18.515Z,101827.78
2022-08-13T05:47:51.471Z,101823.09
2022-08-13T05:50:21.643Z,101832.66
2022-08-13T05:52:49.880Z,101820.06
2022-08-13T05:56:09.051Z,101815.41
2022-08-13T05:58:12.018Z,101807.16
2022-08-13T06:01:11.418Z,101819.38
2022-08-13T06:04:17.577Z,101822.72
2022-08-13T06:06:34.851Z,101824.22
2022-08-13T06:09:09.832Z,101823.97
2022-08-13T06:12:25.708Z,101827.25
2022-08-13T06:14:36.057Z,101820.81
2022-08-13T06:17:12.512Z,101828.53
2022-08-13T06:19:50.649Z,101828.25
2022-08-13T06:22:23.544Z,101825.31
2022-08-13T06:24:54.925Z,101825.91
2022-08-13T06:27:54.585Z,101830.94
2022-08-13T06:30:27.368Z,101825.25
2022-08-13T06:34:06.864Z,101825.91
2022-08-13T06:35:56.528Z,101824.66
2022-08-13T06:38:33.860Z,101822.53
2022-08-13T06:41:03.897Z,101829.31
2022-08-13T06:43:47.912Z,101828.06
2022-08-13T06:46:27.787Z,101821.44
2022-08-13T06:49:01.915Z,101825.50
2022-08-13T06:51:37.970Z,101826.88
2022-08-13T06:54:24.454Z,101825.56
2022-08-13T06:57:07.364Z,101828.75
2022-08-13T06:59:45.714Z,101835.41
2022-08-13T07:02:35.580Z,101838.53
2022-08-13T07:05:07.807Z,101838.09
2022-08-13T07:07:45.908Z,101835.88
2022-08-13T07:10:16.939Z,101836.34
2022-08-13T07:12:46.578Z,101841.22
2022-08-13T07:15:38.984Z,101844.38
2022-08-13T07:18:10.764Z,101840.28
2022-08-13T07:20:40.844Z,101846.91
2022-08-13T07:24:38.756Z,101837.44
2022-08-13T07:26:00.116Z,101842.25
2022-08-13T07:28:46.417Z,101838.19
2022-08-13T07:31:22.708Z,101839.25
2022-08-13T07:33:58.246Z,101846.59
2022-08-13T07:36:31.882Z,101839.69
2022-08-13T07:39:07.128Z,101832.88
2022-08-13T07:42:02.204Z,101839.28
2022-08-13T07:44:43.324Z,101843.97
2022-08-13T07:47:24.534Z,101855.78
2022-08-13T07:49:57.982Z,101842.59
2022-08-13T07:52:31.266Z,101848.22
2022-08-13T07:55:02.914Z,101853.78
2022-08-13T07:57:37.589Z,101846.91
2022-08-13T08:00:22.796Z,101847.09
2022-08-13T08:02:58.497Z,101848.13
2022-08-13T08:05:38.935Z,101847.44
2022-08-13T08:08:11.674Z,101852.09
2022-08-13T08:10:42.545Z,101846.91
2022-08-13T08:13:14.282Z,101848.81
2022-08-13T08:16:02.660Z,101851.66
2022-08-13T08:19:26.991Z,101848.94
2022-08-13T08:21:50.836Z,101851.88
2022-08-13T08:24:29.943Z,101854.50
2022-08-13T08:27:01.978Z,101852.03
2022-08-13T08:29:33.878Z,101862.91
2022-08-13T08:32:10.247Z,101858.69
2022-08-13T08:34:41.512Z,101855.38
2022-08-13T08:37:11.284Z,101857.41
2022-08-13T08:39:58.104Z,101853.19
2022-08-13T08:42:49.498Z,101856.06
2022-08-13T08:46:03.317Z,101855.31
2022-08-13T08:48:26.878Z,101858.22
2022-08-13T08:51:01.133Z,101854.81
2022-08-13T08:54:06.385Z,101852.31
2022-08-13T08:56:21.198Z,101842.69
2022-08-13T08:58:51.001Z,101843.88
2022-08-13T09:01:26.574Z,101837.72
2022-08-13T09:03:58.441Z,101837.84
2022-08-13T09:06:51.368Z,101841.59
2022-08-13T09:09:20.260Z,101833.88
2022-08-13T09:11:55.282Z,101842.06
2022-08-13T09:14:26.700Z,101836.00
2022-08-13T09:16:58.418Z,101837.34
2022-08-13T09:19:46.381Z,101833.09
2022-08-13T09:22:24.048Z,101834.97
2022-08-13T09:24:57.776Z,101839.56
2022-08-13T09:27:57.933Z,101841.44
2022-08-13T09:30:23.541Z,101829.63
2022-08-13T09:32:58.567Z,101831.63
2022-08-13T09:35:35.474Z,101829.22
2022-08-13T09:38:10.246Z,101828.50
2022-08-13T09:40:55.830Z,101822.44
2022-08-13T09:43:44.674Z,101825.72
2022-08-13T09:46:20.273Z,101826.06
2022-08-13T09:48:54.227Z,101821.09
2022-08-13T09:51:56.730Z,101824.00
2022-08-13T09:54:12.369Z,101817.72
2022-08-13T09:56:41.407Z,101820.63
2022-08-13T09:59:15.462Z,101826.59
2022-08-13T10:01:56.681Z,101820.75
2022-08-13T10:04:30.930Z,101810.19
2022-08-13T10:07:11.371Z,101814.09
2022-08-13T10:10:21.762Z,101813.22
2022-08-13T10:12:37.025Z,101812.28
2022-08-13T10:15:07.399Z,101808.13
2022-08-13T10:17:49.802Z,101800.78
2022-08-13T10:20:23.392Z,101794.91
2022-08-13T10:22:54.375Z,101794.19
2022-08-13T10:25:29.739Z,101790.03
2022-08-13T10:28:30.588Z,101791.28
2022-08-13T10:31:48.284Z,101793.28
2022-08-13T10:33:51.673Z,101793.34
2022-08-13T10:36:22.517Z,101788.59
2022-08-13T10:38:55.901Z,101788.66
2022-08-13T10:41:25.304Z,101787.63
2022-08-13T10:44:00.884Z,101775.50
2022-08-13T10:46:34.001Z,101785.91
2022-08-13T10:49:02.553Z,101775.16
2022-08-13T10:51:36.398Z,101777.91
2022-08-13T10:54:30.275Z,101772.47
2022-08-13T10:57:00.000Z,101769.28
2022-08-13T10:59:28.548Z,101771.78
2022-08-13T11:01:56.680Z,101763.03
2022-08-13T11:04:30.367Z,101769.56
2022-08-13T11:07:02.314Z,101767.34
2022-08-13T11:09:37.594Z,101763.63
2022-08-13T11:12:08.647Z,101769.41
2022-08-13T11:14:38.982Z,101771.03
2022-08-13T11:17:09.952Z,101764.22
2022-08-13T11:19:49.104Z,101760.00
2022-08-13T11:22:26.094Z,101752.22
2022-08-13T11:24:57.587Z,101754.81
2022-08-13T11:27:46.990Z,101754.06
2022-08-13T11:30:20.142Z,101747.09
2022-08-13T11:33:00.222Z,101745.50
2022-08-13T11:35:33.458Z,101749.44
2022-08-13T11:38:09.438Z,101744.69
2022-08-13T11:40:39.407Z,101735.97
2022-08-13T11:43:12.642Z,101739.84
2022-08-13T11:45:48.853Z,101739.44
2022-08-13T11:48:19.291Z,101733.84
2022-08-13T11:50:48.503Z,101737.72
2022-08-13T11:53:20.322Z,101743.84
2022-08-13T11:55:57.105Z,101733.44
2022-08-13T11:58:44.857Z,101731.88
2022-08-13T12:01:18.105Z,101732.63
2022-08-13T12:04:16.057Z,101728.97
2022-08-13T12:06:40.472Z,101738.28
2022-08-13T12:09:21.267Z,101727.56
2022-08-13T12:12:08.266Z,101724.44
2022-08-13T12:14:40.739Z,101715.78
2022-08-13T12:17:09.510Z,101718.44
2022-08-13T12:19:39.329Z,101722.72
2022-08-13T12:22:07.594Z,101718.66
2022-08-13T12:24:37.033Z,101722.56
2022-08-13T12:27:08.343Z,101721.19
2022-08-13T12:29:46.447Z,101706.94
2022-08-13T12:32:18.479Z,101706.28
2022-08-13T12:34:48.538Z,101697.28
2022-08-13T12:37:24.377Z,101698.53
2022-08-13T12:39:55.665Z,101695.06
2022-08-13T12:42:27.613Z,101696.53
2022-08-13T12:45:09.606Z,101693.47
2022-08-13T12:47:49.583Z,101682.00
2022-08-13T12:50:21.754Z,101673.81
2022-08-13T12:52:51.037Z,101670.31
2022-08-13T12:55:33.100Z,101675.84
2022-08-13T12:58:15.514Z,101670.09
2022-08-13T13:00:50.298Z,101663.06
2022-08-13T13:03:19.160Z,101661.13
2022-08-13T13:05:56.430Z,101657.50
2022-08-13T13:08:33.049Z,101656.09
2022-08-13T13:11:12.571Z,101657.41
2022-08-13T13:13:54.079Z,101651.84
2022-08-13T13:16:35.526Z,101671.28
2022-08-13T13:19:12.817Z,101654.53
2022-08-13T13:21:45.531Z,101654.44
2022-08-13T13:24:18.369Z,101639.63
2022-08-13T13:26:57.367Z,101647.41
2022-08-13T13:29:36.276Z,101635.50
2022-08-13T13:32:45.183Z,101640.63
2022-08-13T13:35:09.901Z,101644.88
2022-08-13T13:38:04.920Z,101634.28
2022-08-13T13:40:43.893Z,101626.91
2022-08-13T13:43:21.561Z,101628.91
2022-08-13T13:45:52.722Z,101623.38
2022-08-13T13:48:24.785Z,101627.69
2022-08-13T13:50:57.110Z,101622.38
2022-08-13T13:53:46.593Z,101611.69
2022-08-13T13:56:20.199Z,101607.81
2022-08-13T13:58:56.077Z,101618.09
2022-08-13T14:01:44.315Z,101612.34
2022-08-13T14:04:17.145Z,101606.28
2022-08-13T14:06:45.802Z,101610.63
2022-08-13T14:09:21.931Z,101603.41
2022-08-13T14:11:53.525Z,101601.81
2022-08-13T14:14:26.260Z,101601.81
2022-08-13T14:16:54.747Z,101603.19
2022-08-13T14:22:12.538Z,101584.72
2022-08-13T14:24:44.853Z,101584.91
2022-08-13T14:27:19.216Z,101583.97
2022-08-13T14:29:52.741Z,101578.94
2022-08-13T14:32:28.161Z,101572.84
2022-08-13T14:35:05.555Z,101569.00
2022-08-13T14:37:35.420Z,101574.06
2022-08-13T14:40:07.523Z,101566.34
2022-08-13T14:43:17.449Z,101562.34
2022-08-13T14:45:58.897Z,101568.41
2022-08-13T14:48:32.357Z,101558.31
2022-08-13T14:51:17.038Z,101558.22
2022-08-13T14:53:53.329Z,101549.25
2022-08-13T14:56:28.303Z,101548.00
2022-08-13T14:58:57.335Z,101544.09
2022-08-13T15:01:27.198Z,101547.59
2022-08-13T15:03:59.053Z,101542.38
2022-08-13T15:06:35.531Z,101536.06
2022-08-13T15:09:09.522Z,101531.03
2022-08-13T15:11:49.443Z,101533.38
2022-08-13T15:14:20.452Z,101525.38
2022-08-13T15:16:51.482Z,101524.31
2022-08-13T15:19:20.556Z,101524.97
2022-08-13T15:21:51.309Z,101518.22
2022-08-13T15:24:35.920Z,101514.25
2022-08-13T15:27:12.352Z,101512.13
2022-08-13T15:29:44.514Z,101513.00
2022-08-13T15:32:21.321Z,101510.00
2022-08-13T15:34:56.178Z,101496.66
2022-08-13T15:37:25.898Z,101501.72
2022-08-13T15:40:21.692Z,101498.53
2022-08-13T15:42:59.178Z,101509.72
2022-08-13T15:45:30.823Z,101498.00
2022-08-13T15:48:01.025Z,101491.25
2022-08-13T15:50:29.942Z,101486.47
2022-08-13T15:53:09.988Z,101489.44
2022-08-13T15:55:56.451Z,101488.41
2022-08-13T15:58:30.903Z,101482.00
2022-08-13T16:01:14.115Z,101477.59
2022-08-13T16:03:56.290Z,101480.34
2022-08-13T16:06:31.962Z,101481.69
2022-08-13T16:09:03.612Z,101466.91
2022-08-13T16:11:43.259Z,101471.13
2022-08-13T16:14:18.727Z,101471.66
2022-08-13T16:16:52.869Z,101459.34
2022-08-13T16:19:39.151Z,101466.38
2022-08-13T16:22:16.154Z,101456.72
2022-08-13T16:24:50.894Z,101457.16
2022-08-13T16:27:24.337Z,101447.88
2022-08-13T16:29:55.069Z,101457.09
2022-08-13T16:32:29.744Z,101444.94
2022-08-13T16:35:00.485Z,101436.22
2022-08-13T16:37:46.389Z,101440.44
2022-08-13T16:40:20.613Z,101437.63
2022-08-13T16:42:49.738Z,101432.75
2022-08-13T16:45:24.328Z,101428.94
2022-08-13T16:48:11.636Z,101423.38
2022-08-13T16:50:43.638Z,101424.47
2022-08-13T16:53:24.469Z,101421.28
2022-08-13T16:56:04.551Z,101419.22
2022-08-13T16:58:34.835Z,101424.88
2022-08-13T17:01:03.664Z,101422.31
2022-08-13T17:04:00.840Z,101415.81
2022-08-13T17:06:52.820Z,101416.53
2022-08-13T17:09:22.976Z,101402.16
2022-08-13T17:12:00.658Z,101404.94
2022-08-13T17:14:37.916Z,101407.72
2022-08-13T17:17:07.510Z,101405.88
2022-08-13T17:19:58.511Z,101397.53
2022-08-13T17:22:32.721Z,101401.69
2022-08-13T17:25:02.566Z,101400.84
2022-08-13T17:27:32.772Z,101398.38
2022-08-13T17:30:07.259Z,101395.16
2022-08-13T17:32:39.202Z,101401.78
2022-08-13T17:35:20.259Z,101391.66
2022-08-13T17:37:59.009Z,101405.19
2022-08-13T17:40:35.255Z,101398.47
2022-08-13T17:43:59.246Z,101394.25
2022-08-13T17:45:59.530Z,101394.81
2022-08-13T17:48:38.366Z,101405.59
2022-08-13T17:51:22.925Z,101398.94
2022-08-13T17:53:52.931Z,101401.72
2022-08-13T17:56:22.426Z,101395.09
2022-08-13T17:58:50.993Z,101405.28
2022-08-13T18:01:30.525Z,101403.03
2022-08-13T18:04:07.023Z,101397.31
2022-08-13T18:06:38.119Z,101396.06
2022-08-13T18:09:13.288Z,101399.88
2022-08-13T18:11:46.274Z,101405.50
2022-08-13T18:14:21.107Z,101394.31
2022-08-13T18:17:35.323Z,101408.31
2022-08-13T18:19:51.369Z,101405.13
2022-08-13T18:22:26.929Z,101403.44
2022-08-13T18:24:59.883Z,101411.50
2022-08-13T18:28:06.932Z,101411.38
2022-08-13T18:30:29.651Z,101404.25
2022-08-13T18:33:11.125Z,101401.75
2022-08-13T18:35:52.998Z,101406.19
2022-08-13T18:38:22.669Z,101409.44
2022-08-13T18:41:04.302Z,101408.94
2022-08-13T18:43:34.061Z,101420.25
2022-08-13T18:46:03.055Z,101411.31
2022-08-13T18:48:35.144Z,101410.47
2022-08-13T18:51:19.800Z,101415.75
2022-08-13T18:53:57.416Z,101409.06
2022-08-13T18:56:27.151Z,101416.09
2022-08-13T18:58:56.498Z,101425.16
2022-08-13T19:01:27.398Z,101416.41
2022-08-13T19:04:00.728Z,101421.41
2022-08-13T19:06:34.778Z,101427.22
2022-08-13T19:09:07.439Z,101421.75
2022-08-13T19:11:45.182Z,101425.41
2022-08-13T19:14:19.685Z,101427.91
2022-08-13T19:16:56.918Z,101431.03
2022-08-13T19:19:54.137Z,101426.72
2022-08-13T19:22:18.421Z,101423.25
2022-08-13T19:24:49.850Z,101426.44
2022-08-13T19:27:34.844Z,101431.53
2022-08-13T19:30:12.721Z,101427.81
2022-08-13T19:32:43.220Z,101428.44
2022-08-13T19:35:16.767Z,101428.50
2022-08-13T19:37:55.053Z,101427.69
2022-08-13T19:40:34.774Z,101428.66
2022-08-13T19:43:07.235Z,101430.53
2022-08-13T19:45:50.578Z,101436.66
2022-08-13T19:48:37.792Z,101429.34
2022-08-13T19:51:20.067Z,101432.97
2022-08-13T19:53:56.239Z,101433.81
2022-08-13T19:56:35.008Z,101435.44
2022-08-13T19:59:06.941Z,101436.13
2022-08-13T20:01:45.662Z,101434.06
2022-08-13T20:04:17.626Z,101432.03
2022-08-13T20:06:48.986Z,101436.22
2022-08-13T20:09:18.931Z,101429.66
2022-08-13T20:11:50.097Z,101436.44
2022-08-13T20:14:20.768Z,101440.47
2022-08-13T20:16:50.452Z,101440.88
2022-08-13T20:19:20.489Z,101442.31
2022-08-13T20:21:50.979Z,101437.28
2022-08-13T20:25:42.135Z,101439.34
2022-08-13T20:27:20.266Z,101439.69
2022-08-13T20:30:01.407Z,101449.91
2022-08-13T20:32:33.620Z,101448.53
2022-08-13T20:35:07.974Z,101441.75
2022-08-13T20:37:43.021Z,101444.81
2022-08-13T20:40:20.094Z,101441.69
2022-08-13T20:42:55.289Z,101454.47
2022-08-13T20:45:43.197Z,101451.34
2022-08-13T20:48:13.415Z,101448.91
2022-08-13T20:50:42.385Z,101449.97
2022-08-13T20:53:17.837Z,101460.84
2022-08-13T20:55:50.438Z,101457.53
2022-08-13T21:00:47.605Z,101456.03
2022-08-13T21:01:17.739Z,101459.19
2022-08-13T21:03:47.068Z,101460.47
2022-08-13T21:06:19.985Z,101460.72
2022-08-13T21:08:52.405Z,101452.13
2022-08-13T21:11:23.027Z,101454.28
2022-08-13T21:13:51.721Z,101451.06
2022-08-13T21:16:33.866Z,101445.91
2022-08-13T21:19:36.490Z,101448.91
2022-08-13T21:21:55.744Z,101458.22
2022-08-13T21:24:27.985Z,101455.75
2022-08-13T21:26:58.864Z,101448.78
2022-08-13T21:29:32.377Z,101443.25
2022-08-13T21:32:09.887Z,101445.81
2022-08-13T21:34:49.737Z,101439.50
2022-08-13T21:37:27.413Z,101436.66
2022-08-13T21:39:58.540Z,101438.47
2022-08-13T21:42:29.292Z,101439.50
2022-08-13T21:44:58.140Z,101439.78
2022-08-13T21:47:27.696Z,101437.44
2022-08-13T21:49:55.900Z,101436.88
2022-08-13T21:52:31.754Z,101435.34
2022-08-13T21:55:00.125Z,101440.97
2022-08-13T21:57:28.296Z,101437.72
2022-08-13T21:59:59.958Z,101439.81
2022-08-13T22:02:34.990Z,101440.13
2022-08-13T22:05:04.297Z,101440.41
2022-08-13T22:07:55.988Z,101438.81
2022-08-13T22:10:23.399Z,101439.13
2022-08-13T22:12:56.039Z,101438.41
2022-08-13T22:15:33.477Z,101443.09
2022-08-13T22:18:06.176Z,101434.31
2022-08-13T22:20:38.333Z,101439.91
2022-08-13T22:23:10.893Z,101446.28
2022-08-13T22:25:40.101Z,101432.13
2022-08-13T22:28:30.698Z,101435.94
2022-08-13T22:30:59.466Z,101434.31
2022-08-13T22:33:38.432Z,101437.94
2022-08-13T22:36:16.069Z,101437.19
2022-08-13T22:38:58.093Z,101433.81
2022-08-13T22:41:26.247Z,101435.69
2022-08-13T22:43:54.361Z,101438.53
2022-08-13T22:46:22.548Z,101427.00
2022-08-13T22:48:56.257Z,101435.13
2022-08-13T22:51:25.756Z,101439.75
2022-08-13T22:53:58.794Z,101432.72
2022-08-13T22:56:36.051Z,101431.13
2022-08-13T22:59:10.510Z,101425.09
2022-08-13T23:01:42.250Z,101435.06
2022-08-13T23:04:22.300Z,101423.56
2022-08-13T23:06:53.429Z,101421.16
2022-08-13T23:09:23.095Z,101426.63
2022-08-13T23:11:58.132Z,101419.69
2022-08-13T23:14:26.903Z,101413.59
2022-08-13T23:16:55.679Z,101419.97
2022-08-13T23:19:32.638Z,101418.31
2022-08-13T23:22:02.118Z,101420.22
2022-08-13T23:24:30.385Z,101411.53
2022-08-13T23:26:58.515Z,101406.28
2022-08-13T23:29:26.713Z,101405.59
2022-08-13T23:31:58.576Z,101412.88
2022-08-13T23:34:29.013Z,101413.00
2022-08-13T23:37:05.052Z,101407.81
2022-08-13T23:39:35.880Z,101401.72
2022-08-13T23:42:04.878Z,101401.75
2022-08-13T23:44:39.369Z,101404.56
2022-08-13T23:47:13.427Z,101398.50
2022-08-13T23:49:46.583Z,101400.38
2022-08-13T23:52:20.941Z,101396.00
2022-08-13T23:54:54.975Z,101398.75
2022-08-13T23:57:27.810Z,101398.81
2022-08-13T23:59:58.235Z,101392.72
